createdAt,value
2018-05-13T00:07:00.228Z,18.21
2018-05-13T00:21:46.921Z,18.11
2018-05-13T00:22:27.248Z,18.14
2018-05-13T00:35:37.089Z,18.11
2018-05-13T00:36:19.111Z,18.05
2018-05-13T00:37:19.220Z,18.08
2018-05-13T00:38:19.932Z,18.00
2018-05-13T00:39:19.333Z,18.05
2018-05-13T00:40:19.082Z,17.96
2018-05-13T00:41:19.069Z,17.96
2018-05-13T00:42:19.063Z,18.07
2018-05-13T00:43:19.042Z,18.03
2018-05-13T00:44:19.039Z,18.10
2018-05-13T00:45:19.113Z,18.07
2018-05-13T00:46:19.031Z,18.10
2018-05-13T00:51:38.453Z,18.11
2018-05-13T00:52:21.601Z,18.02
2018-05-13T00:53:22.363Z,18.08
2018-05-13T00:54:21.588Z,18.00
2018-05-13T00:55:21.555Z,18.03
2018-05-13T00:56:22.358Z,18.05
2018-05-13T00:57:21.716Z,18.08
2018-05-13T01:00:40.105Z,18.11
2018-05-13T01:01:40.680Z,18.10
2018-05-13T01:07:44.251Z,18.11
2018-05-13T01:08:13.062Z,18.02
2018-05-13T01:08:44.690Z,18.12
2018-05-13T01:09:44.684Z,18.11
2018-05-13T01:10:45.085Z,18.03
2018-05-13T01:11:44.620Z,18.10
2018-05-13T01:12:44.586Z,18.11
2018-05-13T01:13:44.592Z,18.07
2018-05-13T01:14:44.942Z,17.99
2018-05-13T01:15:44.571Z,17.99
2018-05-13T01:26:06.801Z,18.03
2018-05-13T01:26:49.841Z,18.07
2018-05-13T01:40:29.046Z,18.03
2018-05-13T01:40:46.151Z,18.03
2018-05-13T02:37:47.020Z,17.49
2018-05-13T02:38:19.289Z,17.44
2018-05-13T02:39:19.400Z,17.51
2018-05-13T02:40:19.289Z,17.40
2018-05-13T02:41:19.275Z,17.48
2018-05-13T02:42:19.504Z,17.40
2018-05-13T02:57:25.689Z,17.36
2018-05-13T02:57:58.051Z,17.38
2018-05-13T02:58:58.918Z,17.37
2018-05-13T02:59:58.034Z,17.23
2018-05-13T03:00:58.897Z,17.33
2018-05-13T03:01:59.244Z,17.41
2018-05-13T03:02:58.931Z,17.31
2018-05-13T03:03:58.262Z,17.36
2018-05-13T03:04:57.994Z,17.44
2018-05-13T03:05:58.912Z,17.38
2018-05-13T03:06:58.238Z,17.46
2018-05-13T03:07:59.534Z,17.36
2018-05-13T03:34:27.913Z,17.26
2018-05-13T03:34:42.326Z,17.31
2018-05-13T03:56:44.807Z,17.31
2018-05-13T03:57:44.667Z,17.30
2018-05-13T03:58:44.636Z,17.31
2018-05-13T03:59:44.684Z,17.40
2018-05-13T04:00:44.635Z,17.37
2018-05-13T04:01:44.618Z,17.43
2018-05-13T04:15:02.318Z,17.52
2018-05-13T04:16:02.307Z,17.43
2018-05-13T04:24:40.462Z,17.43
2018-05-13T04:25:03.443Z,17.36
2018-05-13T04:26:03.572Z,17.40
2018-05-13T04:27:03.374Z,17.49
2018-05-13T04:33:38.064Z,17.40
2018-05-13T04:34:38.015Z,17.43
2018-05-13T04:35:37.948Z,17.41
2018-05-13T04:36:37.932Z,17.44
2018-05-13T04:37:37.931Z,17.43
2018-05-13T04:38:37.906Z,17.55
2018-05-13T04:39:37.946Z,17.52
2018-05-13T04:40:37.903Z,17.52
2018-05-13T04:41:37.956Z,17.48
2018-05-13T04:42:37.878Z,17.48
2018-05-13T04:43:37.879Z,17.52
2018-05-13T04:44:37.855Z,17.59
2018-05-13T04:45:37.861Z,17.64
2018-05-13T04:46:37.894Z,17.63
2018-05-13T04:47:37.848Z,17.64
2018-05-13T04:48:37.837Z,17.71
2018-05-13T04:49:37.825Z,17.62
2018-05-13T04:50:37.810Z,17.68
2018-05-13T04:51:37.806Z,17.62
2018-05-13T04:52:38.237Z,17.62
2018-05-13T04:53:37.787Z,17.70
2018-05-13T04:54:37.776Z,17.64
2018-05-13T04:55:37.796Z,17.68
2018-05-13T04:56:37.753Z,17.72
2018-05-13T04:57:37.749Z,17.68
2018-05-13T04:58:37.819Z,17.71
2018-05-13T04:59:37.742Z,17.75
2018-05-13T05:00:37.717Z,17.79
2018-05-13T05:01:37.707Z,17.82
2018-05-13T05:02:37.718Z,17.81
2018-05-13T05:03:37.695Z,17.77
2018-05-13T05:04:37.724Z,17.86
2018-05-13T05:05:37.684Z,17.78
2018-05-13T05:06:37.674Z,17.93
2018-05-13T05:07:37.684Z,17.89
2018-05-13T05:08:37.674Z,17.87
2018-05-13T05:09:37.645Z,17.93
2018-05-13T05:10:37.642Z,17.90
2018-05-13T05:11:37.644Z,18.02
2018-05-13T05:12:37.647Z,18.08
2018-05-13T05:13:37.647Z,17.96
2018-05-13T05:14:37.616Z,18.00
2018-05-13T05:15:37.610Z,18.03
2018-05-13T05:16:37.614Z,17.97
2018-05-13T05:17:37.624Z,17.96
2018-05-13T05:18:37.588Z,18.03
2018-05-13T05:19:37.575Z,18.12
2018-05-13T05:20:37.569Z,18.05
2018-05-13T05:21:37.564Z,18.18
2018-05-13T05:22:37.607Z,18.21
2018-05-13T05:23:37.546Z,18.17
2018-05-13T05:24:37.537Z,18.20
2018-05-13T05:25:37.520Z,18.23
2018-05-13T05:26:37.527Z,18.25
2018-05-13T05:27:37.501Z,18.15
2018-05-13T05:28:37.632Z,18.32
2018-05-13T05:29:37.495Z,18.27
2018-05-13T05:30:37.494Z,18.27
2018-05-13T05:31:37.475Z,18.25
2018-05-13T05:32:37.462Z,18.36
2018-05-13T05:33:37.464Z,18.33
2018-05-13T05:34:37.459Z,18.30
2018-05-13T05:35:38.226Z,18.39
2018-05-13T05:36:37.446Z,18.33
2018-05-13T05:37:37.434Z,18.33
2018-05-13T05:38:37.414Z,18.32
2018-05-13T05:39:37.436Z,18.29
2018-05-13T05:40:37.481Z,18.26
2018-05-13T05:41:37.400Z,18.32
2018-05-13T05:42:37.415Z,18.33
2018-05-13T05:43:37.384Z,18.33
2018-05-13T05:44:37.381Z,18.30
2018-05-13T05:45:37.388Z,18.36
2018-05-13T05:46:37.368Z,18.33
2018-05-13T05:47:37.358Z,18.37
2018-05-13T05:48:37.348Z,18.36
2018-05-13T05:49:37.338Z,18.33
2018-05-13T05:50:37.340Z,18.42
2018-05-13T05:51:37.329Z,18.47
2018-05-13T05:52:37.316Z,18.44
2018-05-13T05:53:37.305Z,18.45
2018-05-13T05:54:37.304Z,18.47
2018-05-13T05:55:37.307Z,18.52
2018-05-13T05:56:37.316Z,18.52
2018-05-13T05:57:37.282Z,18.54
2018-05-13T05:58:37.279Z,18.51
2018-05-13T05:59:37.266Z,18.54
2018-05-13T06:00:37.258Z,18.60
2018-05-13T06:01:37.285Z,18.58
2018-05-13T06:02:37.261Z,18.62
2018-05-13T06:03:37.284Z,18.62
2018-05-13T06:04:37.216Z,18.69
2018-05-13T06:05:37.225Z,18.67
2018-05-13T06:06:37.356Z,18.70
2018-05-13T06:07:37.205Z,18.65
2018-05-13T06:08:37.209Z,18.72
2018-05-13T06:09:37.197Z,18.67
2018-05-13T06:10:37.184Z,18.72
2018-05-13T06:11:37.177Z,18.70
2018-05-13T06:12:37.230Z,18.76
2018-05-13T06:13:37.161Z,18.73
2018-05-13T06:14:37.159Z,18.73
2018-05-13T06:15:37.176Z,18.81
2018-05-13T06:16:37.147Z,18.76
2018-05-13T06:17:37.142Z,18.82
2018-05-13T06:18:37.121Z,18.87
2018-05-13T06:19:37.211Z,18.88
2018-05-13T06:20:37.130Z,18.90
2018-05-13T06:21:37.114Z,18.88
2018-05-13T06:22:37.097Z,18.95
2018-05-13T06:23:37.088Z,18.94
2018-05-13T06:24:37.069Z,18.90
2018-05-13T06:25:37.075Z,19.00
2018-05-13T06:26:37.085Z,19.06
2018-05-13T06:27:37.066Z,18.95
2018-05-13T06:28:37.052Z,19.02
2018-05-13T06:29:37.049Z,19.02
2018-05-13T06:30:37.112Z,19.08
2018-05-13T06:31:37.060Z,19.18
2018-05-13T06:32:37.024Z,19.11
2018-05-13T06:33:37.051Z,19.16
2018-05-13T06:34:37.007Z,19.19
2018-05-13T06:35:36.995Z,19.25
2018-05-13T06:36:37.146Z,19.21
2018-05-13T06:37:36.987Z,19.21
2018-05-13T06:38:36.995Z,19.22
2018-05-13T06:39:36.982Z,19.23
2018-05-13T06:40:36.969Z,19.26
2018-05-13T06:41:36.960Z,19.26
2018-05-13T06:42:36.993Z,19.25
2018-05-13T06:43:36.946Z,19.37
2018-05-13T06:44:36.934Z,19.47
2018-05-13T06:45:36.960Z,19.37
2018-05-13T06:46:36.930Z,19.40
2018-05-13T06:47:37.027Z,19.37
2018-05-13T06:48:36.918Z,19.39
2018-05-13T06:49:36.905Z,19.36
2018-05-13T06:50:36.897Z,19.44
2018-05-13T06:51:36.890Z,19.48
2018-05-13T06:52:36.882Z,19.43
2018-05-13T06:53:36.956Z,19.44
2018-05-13T06:54:36.903Z,19.58
2018-05-13T06:55:36.868Z,19.65
2018-05-13T06:56:36.871Z,19.65
2018-05-13T06:57:36.943Z,19.63
2018-05-13T06:58:36.849Z,19.58
2018-05-13T06:59:36.874Z,19.65
2018-05-13T07:00:36.839Z,19.62
2018-05-13T07:01:36.841Z,19.69
2018-05-13T07:02:36.857Z,19.71
2018-05-13T07:03:36.820Z,19.78
2018-05-13T07:04:36.816Z,19.81
2018-05-13T07:05:36.860Z,19.81
2018-05-13T07:06:36.804Z,19.77
2018-05-13T07:07:36.791Z,19.92
2018-05-13T07:08:36.783Z,19.84
2018-05-13T07:09:36.779Z,19.87
2018-05-13T07:10:36.785Z,19.83
2018-05-13T07:11:36.801Z,19.91
2018-05-13T07:12:36.759Z,20.02
2018-05-13T07:13:36.787Z,20.08
2018-05-13T07:14:36.735Z,20.03
2018-05-13T07:15:36.743Z,20.01
2018-05-13T07:16:36.752Z,20.02
2018-05-13T07:17:36.727Z,20.01
2018-05-13T07:18:36.732Z,19.96
2018-05-13T07:19:36.713Z,20.01
2018-05-13T07:20:36.716Z,20.03
2018-05-13T07:21:36.706Z,19.96
2018-05-13T07:22:36.712Z,20.05
2018-05-13T07:23:36.701Z,20.13
2018-05-13T07:24:36.676Z,20.11
2018-05-13T07:25:36.683Z,20.18
2018-05-13T07:26:36.711Z,20.13
2018-05-13T07:27:36.669Z,20.16
2018-05-13T07:28:36.655Z,20.11
2018-05-13T07:29:36.665Z,20.08
2018-05-13T07:30:36.648Z,20.13
2018-05-13T07:31:36.644Z,20.18
2018-05-13T07:32:36.642Z,20.26
2018-05-13T07:33:36.623Z,20.35
2018-05-13T07:34:36.619Z,20.32
2018-05-13T07:35:36.786Z,20.20
2018-05-13T07:36:36.617Z,20.33
2018-05-13T07:37:36.600Z,20.32
2018-05-13T07:38:36.607Z,20.33
2018-05-13T07:39:36.596Z,20.39
2018-05-13T07:40:36.570Z,20.35
2018-05-13T07:41:36.610Z,20.42
2018-05-13T07:42:36.779Z,20.43
2018-05-13T07:43:36.565Z,20.50
2018-05-13T07:44:36.571Z,20.43
2018-05-13T07:45:36.553Z,20.52
2018-05-13T07:46:36.551Z,20.50
2018-05-13T07:47:36.546Z,20.50
2018-05-13T07:48:36.569Z,20.58
2018-05-13T07:49:36.533Z,20.55
2018-05-13T07:50:36.517Z,20.57
2018-05-13T07:51:36.512Z,20.57
2018-05-13T07:52:36.521Z,20.58
2018-05-13T07:53:36.545Z,20.62
2018-05-13T07:54:36.507Z,20.64
2018-05-13T07:55:36.500Z,20.72
2018-05-13T07:56:36.799Z,20.77
2018-05-13T07:57:36.486Z,20.72
2018-05-13T07:58:36.511Z,20.67
2018-05-13T07:59:36.470Z,20.89
2018-05-13T08:00:36.474Z,20.89
2018-05-13T08:01:36.468Z,20.89
2018-05-13T08:02:36.695Z,20.91
2018-05-13T08:03:36.453Z,20.85
2018-05-13T08:04:36.794Z,20.80
2018-05-13T08:05:36.444Z,20.84
2018-05-13T08:06:36.440Z,20.84
2018-05-13T08:07:36.431Z,20.91
2018-05-13T08:08:36.435Z,20.80
2018-05-13T08:09:36.415Z,20.95
2018-05-13T08:10:36.555Z,21.01
2018-05-13T08:11:36.411Z,20.94
2018-05-13T08:12:36.408Z,20.99
2018-05-13T08:13:36.394Z,21.10
2018-05-13T08:14:36.397Z,21.14
2018-05-13T08:15:36.391Z,21.09
2018-05-13T08:16:36.420Z,21.17
2018-05-13T08:17:36.394Z,21.19
2018-05-13T08:18:36.379Z,21.13
2018-05-13T08:19:36.377Z,21.09
2018-05-13T08:20:36.367Z,21.10
2018-05-13T08:21:36.357Z,21.04
2018-05-13T08:22:36.398Z,20.98
2018-05-13T08:23:36.339Z,20.99
2018-05-13T08:24:36.380Z,20.99
2018-05-13T08:25:36.333Z,21.06
2018-05-13T08:26:36.333Z,21.07
2018-05-13T08:27:36.338Z,21.14
2018-05-13T08:28:36.792Z,21.24
2018-05-13T08:29:36.320Z,21.25
2018-05-13T08:30:36.424Z,21.27
2018-05-13T08:31:36.301Z,21.40
2018-05-13T08:32:36.306Z,21.37
2018-05-13T08:33:36.303Z,21.37
2018-05-13T08:34:36.292Z,21.46
2018-05-13T08:35:36.332Z,21.49
2018-05-13T08:36:36.290Z,21.54
2018-05-13T08:37:36.277Z,21.49
2018-05-13T08:38:36.339Z,21.47
2018-05-13T08:39:36.261Z,21.53
2018-05-13T08:40:36.439Z,21.67
2018-05-13T08:41:36.265Z,21.67
2018-05-13T08:42:36.244Z,21.62
2018-05-13T08:43:36.245Z,21.58
2018-05-13T08:44:36.232Z,21.74
2018-05-13T08:45:36.265Z,21.69
2018-05-13T08:46:36.303Z,21.79
2018-05-13T08:47:36.232Z,21.88
2018-05-13T08:48:36.966Z,21.86
2018-05-13T08:49:36.221Z,22.00
2018-05-13T08:50:36.230Z,22.05
2018-05-13T08:51:36.204Z,22.00
2018-05-13T08:52:36.268Z,22.03
2018-05-13T08:53:36.199Z,22.03
2018-05-13T08:54:36.186Z,22.10
2018-05-13T08:55:36.198Z,22.10
2018-05-13T08:56:36.180Z,22.21
2018-05-13T08:57:36.180Z,22.22
2018-05-13T08:58:36.203Z,22.35
2018-05-13T08:59:36.193Z,22.37
2018-05-13T09:00:36.173Z,22.36
2018-05-13T09:01:36.165Z,22.36
2018-05-13T09:02:36.186Z,22.40
2018-05-13T09:03:36.167Z,22.51
2018-05-13T09:04:36.156Z,22.67
2018-05-13T09:05:36.160Z,22.67
2018-05-13T09:06:36.149Z,22.67
2018-05-13T09:07:36.148Z,22.73
2018-05-13T09:08:36.172Z,22.90
2018-05-13T09:09:36.139Z,22.94
2018-05-13T09:10:36.136Z,22.97
2018-05-13T09:11:36.137Z,22.91
2018-05-13T09:12:36.801Z,22.90
2018-05-13T09:13:36.134Z,23.07
2018-05-13T09:14:36.129Z,23.17
2018-05-13T09:15:36.150Z,23.20
2018-05-13T09:16:36.121Z,23.36
2018-05-13T09:17:36.119Z,23.39
2018-05-13T09:18:36.111Z,23.51
2018-05-13T09:19:36.119Z,23.66
2018-05-13T09:20:36.184Z,23.78
2018-05-13T09:21:36.112Z,23.88
2018-05-13T09:22:36.100Z,23.98
2018-05-13T09:23:36.102Z,24.00
2018-05-13T09:24:36.108Z,24.10
2018-05-13T09:25:36.131Z,24.15
2018-05-13T09:26:36.116Z,24.09
2018-05-13T09:27:36.103Z,24.24
2018-05-13T09:28:36.101Z,24.20
2018-05-13T09:29:36.094Z,24.27
2018-05-13T09:30:36.131Z,24.35
2018-05-13T09:31:36.087Z,24.45
2018-05-13T09:32:36.083Z,24.47
2018-05-13T09:33:36.092Z,24.49
2018-05-13T09:34:36.241Z,24.55
2018-05-13T09:35:36.091Z,24.55
2018-05-13T09:36:36.092Z,24.58
2018-05-13T09:37:36.097Z,24.67
2018-05-13T09:38:36.091Z,24.60
2018-05-13T09:39:36.096Z,24.69
2018-05-13T09:40:36.108Z,24.69
2018-05-13T09:41:36.093Z,24.61
2018-05-13T09:42:36.103Z,24.69
2018-05-13T09:43:36.102Z,24.58
2018-05-13T09:44:36.092Z,24.49
2018-05-13T09:45:36.103Z,24.53
2018-05-13T09:46:36.090Z,24.58
2018-05-13T09:47:36.097Z,24.67
2018-05-13T09:48:36.095Z,24.67
2018-05-13T09:49:36.088Z,24.77
2018-05-13T09:50:36.122Z,24.84
2018-05-13T09:51:36.125Z,24.85
2018-05-13T09:52:36.093Z,24.91
2018-05-13T09:53:36.109Z,24.95
2018-05-13T09:54:36.105Z,25.02
2018-05-13T09:55:36.114Z,25.17
2018-05-13T09:56:36.141Z,25.28
2018-05-13T09:57:36.135Z,25.39
2018-05-13T09:58:36.116Z,25.35
2018-05-13T09:59:36.120Z,25.35
2018-05-13T10:00:36.118Z,25.36
2018-05-13T10:01:36.263Z,25.47
2018-05-13T10:02:36.114Z,25.67
2018-05-13T10:03:36.128Z,25.67
2018-05-13T10:04:36.130Z,25.80
2018-05-13T10:05:36.128Z,25.90
2018-05-13T10:06:36.121Z,25.85
2018-05-13T10:07:36.158Z,26.06
2018-05-13T10:08:36.139Z,26.15
2018-05-13T10:09:36.226Z,26.30
2018-05-13T10:10:36.151Z,26.47
2018-05-13T10:11:36.164Z,26.43
2018-05-13T10:12:36.222Z,26.40
2018-05-13T10:13:36.149Z,26.40
2018-05-13T10:14:36.160Z,26.45
2018-05-13T10:15:36.168Z,26.33
2018-05-13T10:16:36.192Z,26.44
2018-05-13T10:17:36.174Z,26.44
2018-05-13T10:18:36.382Z,26.50
2018-05-13T10:19:36.306Z,26.66
2018-05-13T10:20:36.182Z,26.76
2018-05-13T10:21:36.203Z,26.88
2018-05-13T10:22:36.318Z,26.89
2018-05-13T10:23:36.245Z,27.04
2018-05-13T10:24:36.844Z,27.27
2018-05-13T10:25:36.207Z,27.28
2018-05-13T10:26:36.218Z,27.41
2018-05-13T10:27:36.225Z,27.54
2018-05-13T10:28:36.287Z,27.65
2018-05-13T10:29:36.236Z,27.78
2018-05-13T10:30:36.236Z,27.94
2018-05-13T10:31:36.245Z,27.96
2018-05-13T10:32:36.249Z,27.87
2018-05-13T10:33:36.261Z,28.03
2018-05-13T10:34:36.320Z,28.09
2018-05-13T10:35:36.274Z,27.88
2018-05-13T10:36:36.283Z,27.88
2018-05-13T10:37:36.275Z,27.93
2018-05-13T10:38:36.291Z,27.92
2018-05-13T10:39:36.281Z,27.93
2018-05-13T10:40:36.334Z,27.82
2018-05-13T10:41:36.299Z,27.59
2018-05-13T10:42:36.311Z,27.57
2018-05-13T10:43:36.314Z,27.46
2018-05-13T10:44:36.330Z,27.41
2018-05-13T10:45:36.331Z,27.24
2018-05-13T10:46:36.381Z,27.07
2018-05-13T10:47:36.349Z,26.97
2018-05-13T10:48:36.340Z,26.82
2018-05-13T10:49:36.343Z,26.73
2018-05-13T10:50:36.351Z,26.51
2018-05-13T10:51:36.348Z,26.57
2018-05-13T10:52:36.371Z,26.57
2018-05-13T10:53:36.378Z,26.58
2018-05-13T10:54:36.374Z,26.67
2018-05-13T10:55:36.371Z,26.62
2018-05-13T10:56:36.385Z,26.72
2018-05-13T10:57:36.802Z,26.81
2018-05-13T10:58:36.387Z,26.70
2018-05-13T10:59:36.392Z,26.57
2018-05-13T11:00:36.395Z,26.39
2018-05-13T11:01:36.401Z,26.44
2018-05-13T11:02:36.393Z,26.43
2018-05-13T11:03:36.552Z,26.50
2018-05-13T11:04:36.394Z,26.25
2018-05-13T11:05:36.404Z,26.05
2018-05-13T11:06:36.409Z,25.85
2018-05-13T11:07:36.400Z,25.85
2018-05-13T11:08:36.419Z,25.87
2018-05-13T11:09:36.894Z,25.75
2018-05-13T11:10:36.412Z,25.85
2018-05-13T11:11:36.420Z,25.90
2018-05-13T11:12:36.416Z,26.01
2018-05-13T11:13:36.420Z,26.21
2018-05-13T11:14:36.439Z,26.30
2018-05-13T11:15:36.412Z,26.39
2018-05-13T11:16:36.426Z,26.48
2018-05-13T11:17:36.437Z,26.62
2018-05-13T11:18:36.455Z,26.80
2018-05-13T11:19:36.429Z,26.88
2018-05-13T11:20:36.537Z,26.92
2018-05-13T11:21:36.436Z,26.91
2018-05-13T11:22:36.573Z,26.92
2018-05-13T11:23:36.432Z,26.97
2018-05-13T11:24:36.435Z,27.09
2018-05-13T11:25:36.441Z,27.22
2018-05-13T11:26:36.450Z,27.41
2018-05-13T11:27:36.455Z,27.47
2018-05-13T11:28:36.478Z,27.72
2018-05-13T11:29:36.451Z,27.88
2018-05-13T11:30:36.452Z,28.24
2018-05-13T11:31:36.463Z,28.52
2018-05-13T11:32:36.466Z,28.81
2018-05-13T11:33:36.507Z,29.02
2018-05-13T11:34:36.533Z,29.31
2018-05-13T11:35:36.478Z,29.55
2018-05-13T11:36:36.484Z,29.70
2018-05-13T11:37:36.478Z,29.98
2018-05-13T11:38:36.484Z,30.23
2018-05-13T11:39:36.494Z,30.39
2018-05-13T11:40:36.904Z,30.49
2018-05-13T11:41:36.506Z,30.58
2018-05-13T11:42:36.510Z,30.82
2018-05-13T11:43:36.513Z,30.89
2018-05-13T11:44:36.518Z,30.97
2018-05-13T11:45:36.531Z,30.94
2018-05-13T11:46:36.563Z,31.13
2018-05-13T11:47:36.533Z,31.20
2018-05-13T11:48:36.552Z,31.23
2018-05-13T11:49:36.553Z,31.10
2018-05-13T11:50:36.955Z,30.92
2018-05-13T11:51:36.563Z,30.97
2018-05-13T11:52:36.575Z,30.91
2018-05-13T11:53:36.577Z,31.02
2018-05-13T11:54:36.598Z,31.19
2018-05-13T11:55:36.593Z,31.32
2018-05-13T11:56:36.621Z,31.48
2018-05-13T11:57:36.610Z,31.76
2018-05-13T11:58:36.639Z,32.01
2018-05-13T11:59:36.668Z,31.88
2018-05-13T12:00:37.430Z,32.08
2018-05-13T12:01:36.638Z,32.19
2018-05-13T12:02:36.714Z,32.22
2018-05-13T12:03:36.708Z,32.29
2018-05-13T12:04:36.877Z,32.26
2018-05-13T12:05:36.686Z,32.11
2018-05-13T12:06:36.904Z,31.99
2018-05-13T12:07:36.691Z,31.65
2018-05-13T12:08:36.699Z,30.99
2018-05-13T12:09:37.431Z,30.46
2018-05-13T12:10:36.856Z,30.07
2018-05-13T12:11:36.708Z,29.89
2018-05-13T12:12:36.726Z,29.78
2018-05-13T12:13:36.722Z,29.73
2018-05-13T12:14:36.756Z,29.63
2018-05-13T12:15:36.753Z,29.64
2018-05-13T12:16:36.803Z,29.46
2018-05-13T12:17:36.748Z,29.45
2018-05-13T12:18:36.753Z,29.42
2018-05-13T12:19:36.743Z,29.23
2018-05-13T12:20:36.759Z,29.26
2018-05-13T12:21:36.776Z,29.06
2018-05-13T12:22:36.791Z,28.95
2018-05-13T12:23:37.439Z,28.88
2018-05-13T12:24:37.061Z,28.78
2018-05-13T12:25:36.761Z,28.61
2018-05-13T12:26:36.766Z,28.39
2018-05-13T12:27:36.794Z,28.34
2018-05-13T12:28:36.773Z,28.22
2018-05-13T12:29:36.782Z,28.03
2018-05-13T12:30:36.790Z,27.94
2018-05-13T12:31:36.775Z,27.92
2018-05-13T12:32:36.786Z,27.88
2018-05-13T12:33:36.791Z,27.75
2018-05-13T12:34:36.782Z,27.79
2018-05-13T12:35:36.790Z,27.72
2018-05-13T12:36:36.946Z,27.72
2018-05-13T12:37:36.799Z,27.75
2018-05-13T12:38:36.792Z,27.81
2018-05-13T12:39:36.801Z,27.79
2018-05-13T12:40:37.437Z,27.81
2018-05-13T12:41:36.810Z,27.81
2018-05-13T12:42:36.984Z,27.82
2018-05-13T12:43:36.797Z,27.84
2018-05-13T12:44:36.807Z,27.92
2018-05-13T12:45:36.806Z,27.87
2018-05-13T12:46:36.804Z,27.82
2018-05-13T12:47:36.849Z,27.75
2018-05-13T12:48:36.838Z,27.79
2018-05-13T12:49:36.809Z,27.79
2018-05-13T12:50:36.821Z,27.70
2018-05-13T12:51:36.816Z,27.69
2018-05-13T12:52:36.811Z,27.63
2018-05-13T12:53:37.457Z,27.55
2018-05-13T12:54:36.806Z,27.18
2018-05-13T12:55:36.807Z,27.02
2018-05-13T12:56:36.816Z,26.91
2018-05-13T12:57:37.450Z,26.89
2018-05-13T12:58:36.822Z,27.00
2018-05-13T12:59:36.885Z,26.92
2018-05-13T13:00:36.808Z,26.94
2018-05-13T13:01:36.818Z,27.04
2018-05-13T13:02:36.830Z,27.04
2018-05-13T13:03:36.814Z,27.13
2018-05-13T13:04:36.810Z,27.13
2018-05-13T13:05:36.979Z,27.14
2018-05-13T13:06:36.827Z,27.12
2018-05-13T13:07:36.825Z,27.17
2018-05-13T13:08:37.468Z,27.10
2018-05-13T13:09:36.804Z,27.12
2018-05-13T13:10:37.475Z,27.10
2018-05-13T13:11:37.030Z,27.10
2018-05-13T13:12:36.853Z,27.10
2018-05-13T13:13:36.804Z,27.09
2018-05-13T13:14:36.802Z,27.09
2018-05-13T13:15:36.809Z,27.00
2018-05-13T13:16:36.808Z,27.03
2018-05-13T13:17:36.814Z,26.91
2018-05-13T13:18:36.811Z,26.88
2018-05-13T13:19:36.801Z,26.87
2018-05-13T13:20:36.804Z,26.80
2018-05-13T13:21:36.830Z,26.75
2018-05-13T13:22:36.864Z,26.65
2018-05-13T13:23:36.804Z,26.60
2018-05-13T13:24:36.854Z,26.51
2018-05-13T13:25:36.928Z,26.57
2018-05-13T13:26:36.796Z,26.40
2018-05-13T13:27:36.801Z,26.39
2018-05-13T13:28:37.473Z,26.35
2018-05-13T13:29:36.941Z,26.37
2018-05-13T13:30:36.878Z,26.32
2018-05-13T13:31:36.797Z,26.28
2018-05-13T13:32:36.821Z,26.28
2018-05-13T13:33:36.786Z,26.23
2018-05-13T13:34:36.793Z,26.13
2018-05-13T13:35:37.139Z,25.99
2018-05-13T13:36:36.829Z,25.90
2018-05-13T13:37:36.773Z,25.87
2018-05-13T13:38:36.785Z,25.91
2018-05-13T13:39:36.860Z,25.88
2018-05-13T13:40:36.785Z,25.83
2018-05-13T13:41:36.844Z,25.88
2018-05-13T13:42:36.770Z,25.88
2018-05-13T13:43:36.921Z,25.85
2018-05-13T13:44:36.767Z,25.90
2018-05-13T13:45:36.850Z,25.83
2018-05-13T13:46:36.767Z,25.97
2018-05-13T13:47:36.792Z,25.98
2018-05-13T13:48:36.772Z,26.07
2018-05-13T13:49:36.774Z,26.21
2018-05-13T13:50:36.788Z,26.30
2018-05-13T13:51:37.486Z,26.33
2018-05-13T13:52:37.009Z,26.47
2018-05-13T13:53:36.759Z,26.47
2018-05-13T13:54:36.766Z,26.44
2018-05-13T13:55:36.774Z,26.37
2018-05-13T13:56:36.766Z,26.39
2018-05-13T13:57:36.844Z,26.39
2018-05-13T13:58:36.764Z,26.45
2018-05-13T13:59:36.745Z,26.43
2018-05-13T14:00:36.769Z,26.30
2018-05-13T14:01:36.747Z,26.25
2018-05-13T14:02:36.754Z,26.17
2018-05-13T14:03:36.889Z,26.20
2018-05-13T14:04:36.742Z,26.18
2018-05-13T14:05:36.818Z,26.09
2018-05-13T14:06:36.772Z,26.10
2018-05-13T14:07:36.744Z,26.09
2018-05-13T14:08:36.742Z,26.12
2018-05-13T14:09:36.748Z,26.02
2018-05-13T14:10:36.758Z,26.12
2018-05-13T14:11:36.738Z,26.05
2018-05-13T14:12:36.727Z,25.98
2018-05-13T14:13:36.736Z,25.91
2018-05-13T14:14:36.779Z,25.97
2018-05-13T14:15:36.765Z,25.92
2018-05-13T14:16:36.731Z,25.82
2018-05-13T14:17:36.721Z,25.88
2018-05-13T14:18:36.712Z,25.90
2018-05-13T14:19:36.713Z,25.82
2018-05-13T14:20:36.812Z,25.72
2018-05-13T14:21:36.729Z,25.69
2018-05-13T14:22:36.723Z,25.72
2018-05-13T14:23:36.745Z,25.67
2018-05-13T14:24:36.703Z,25.65
2018-05-13T14:25:36.708Z,25.60
2018-05-13T14:26:36.769Z,25.57
2018-05-13T14:27:37.505Z,25.50
2018-05-13T14:28:36.741Z,25.55
2018-05-13T14:29:36.701Z,25.61
2018-05-13T14:30:36.695Z,25.51
2018-05-13T14:31:36.701Z,25.51
2018-05-13T14:32:37.074Z,25.47
2018-05-13T14:33:36.701Z,25.43
2018-05-13T14:34:36.699Z,25.45
2018-05-13T14:35:36.704Z,25.36
2018-05-13T14:36:36.690Z,25.39
2018-05-13T14:37:36.700Z,25.39
2018-05-13T14:38:37.035Z,25.36
2018-05-13T14:39:36.710Z,25.36
2018-05-13T14:40:36.684Z,25.35
2018-05-13T14:41:36.678Z,25.33
2018-05-13T14:42:36.686Z,25.18
2018-05-13T14:43:36.703Z,24.87
2018-05-13T14:44:36.704Z,24.57
2018-05-13T14:45:36.677Z,24.27
2018-05-13T14:46:36.661Z,24.02
2018-05-13T14:47:36.647Z,23.72
2018-05-13T14:48:36.651Z,23.50
2018-05-13T14:49:36.705Z,23.33
2018-05-13T14:50:36.756Z,22.94
2018-05-13T14:51:36.652Z,22.60
2018-05-13T14:52:36.646Z,22.43
2018-05-13T14:53:36.638Z,22.18
2018-05-13T14:54:37.077Z,22.05
2018-05-13T14:55:36.655Z,21.77
2018-05-13T14:56:36.636Z,21.50
2018-05-13T14:57:36.639Z,21.44
2018-05-13T14:58:36.634Z,21.28
2018-05-13T14:59:36.630Z,21.19
2018-05-13T15:00:36.637Z,20.91
2018-05-13T15:01:36.797Z,20.85
2018-05-13T15:02:36.614Z,20.76
2018-05-13T15:03:36.744Z,20.62
2018-05-13T15:04:36.663Z,20.42
2018-05-13T15:05:36.614Z,20.20
2018-05-13T15:06:36.604Z,20.08
2018-05-13T15:07:36.592Z,19.98
2018-05-13T15:08:36.584Z,19.86
2018-05-13T15:09:36.581Z,19.76
2018-05-13T15:10:36.612Z,19.58
2018-05-13T15:11:36.567Z,19.63
2018-05-13T15:12:36.566Z,19.58
2018-05-13T15:13:37.061Z,19.47
2018-05-13T15:14:37.537Z,19.47
2018-05-13T15:15:36.661Z,19.47
2018-05-13T15:16:36.628Z,19.39
2018-05-13T15:17:36.557Z,19.40
2018-05-13T15:18:36.550Z,19.31
2018-05-13T15:19:36.590Z,19.37
2018-05-13T15:20:36.521Z,19.40
2018-05-13T15:21:36.533Z,19.41
2018-05-13T15:22:37.118Z,19.28
2018-05-13T15:23:36.593Z,19.32
2018-05-13T15:24:37.039Z,19.28
2018-05-13T15:25:36.507Z,19.26
2018-05-13T15:26:36.658Z,19.26
2018-05-13T15:27:36.596Z,19.16
2018-05-13T15:28:36.936Z,19.22
2018-05-13T15:29:36.507Z,19.18
2018-05-13T15:30:36.583Z,19.22
2018-05-13T15:31:36.892Z,19.18
2018-05-13T15:32:36.474Z,19.23
2018-05-13T15:33:36.461Z,19.14
2018-05-13T15:34:36.468Z,19.14
2018-05-13T15:35:37.565Z,19.25
2018-05-13T15:36:36.546Z,19.28
2018-05-13T15:37:37.055Z,19.29
2018-05-13T15:38:36.455Z,19.33
2018-05-13T15:39:36.433Z,19.29
2018-05-13T15:40:36.551Z,19.25
2018-05-13T15:41:36.583Z,19.31
2018-05-13T15:42:36.569Z,19.23
2018-05-13T15:43:36.401Z,19.26
2018-05-13T15:44:36.693Z,19.31
2018-05-13T15:45:36.433Z,19.39
2018-05-13T15:46:36.387Z,19.39
2018-05-13T15:47:36.453Z,19.33
2018-05-13T15:48:36.374Z,19.29
2018-05-13T15:49:36.362Z,19.22
2018-05-13T15:50:36.372Z,19.28
2018-05-13T15:51:36.341Z,19.28
2018-05-13T15:52:36.368Z,19.08
2018-05-13T15:53:36.379Z,18.98
2018-05-13T15:54:36.330Z,18.95
2018-05-13T15:55:36.489Z,19.07
2018-05-13T15:56:36.319Z,19.00
2018-05-13T15:57:36.340Z,18.94
2018-05-13T15:58:36.314Z,18.82
2018-05-13T15:59:36.341Z,18.67
2018-05-13T16:00:36.337Z,18.76
2018-05-13T16:01:36.297Z,18.73
2018-05-13T16:02:36.312Z,18.78
2018-05-13T16:03:36.283Z,18.82
2018-05-13T16:04:36.280Z,18.84
2018-05-13T16:05:36.281Z,18.82
2018-05-13T16:06:36.535Z,18.82
2018-05-13T16:07:36.258Z,18.80
2018-05-13T16:08:36.302Z,18.72
2018-05-13T16:09:36.306Z,18.66
2018-05-13T16:10:36.231Z,18.44
2018-05-13T16:11:36.226Z,18.36
2018-05-13T16:12:36.217Z,18.23
2018-05-13T16:13:36.229Z,17.95
2018-05-13T16:14:36.210Z,17.92
2018-05-13T16:15:36.326Z,17.78